Thacker, West Virginia
Current Conditions -  °F | °C
As of 5:55 PM on Thursday 20 Nov 2014 (Local Time) from KPBX Reporting Station
Clear Clear  
Wind Chill: 32°   Ceiling: Unl
Heat Index: 37°   Visibility: 10mi
Dew Point: 14°   Wind: 6mph
Humidity: 39%   Direction: 240°WSW
Pressure: 30.11"   Gusts: NA
Location:  37.59°N, 82.13°W
Report Text: KPBX 202255Z AUTO 24005KT 10SM CLR 03/M10 A3011 RMK AO2 T00281100
Loading
Personal Weather Stations






























Interactive Weather Map New forecast layout! Learn more

10-Day Weather Forecast

Advertisements
Track Severe Weather on mobile